Time;durP1;ratioP1;P1;durP2;ratioP2;P2;SDS_P1;SDS_P2;PMS_P1;PMS_P2;Temp;Humidity;BMP_temperature;BMP_pressure;BME280_temperature;BME280_humidity;BME280_pressure;Samples;Min_cycle;Max_cycle;Signal;HPM_P1;HPM_P2
2021/12/14 00:02:23;;;;;;;2.88;1.30;;;18.20;52.30;;;;;;5114421;28;20035;-53
2021/12/14 00:04:49;;;;;;;1.65;1.17;;;18.10;52.30;;;;;;5114005;28;20484;-51
2021/12/14 00:07:15;;;;;;;1.27;1.15;;;18.10;52.30;;;;;;5114046;28;20023;-54
2021/12/14 00:09:42;;;;;;;2.60;1.25;;;18.10;52.20;;;;;;5114185;28;20063;-52
2021/12/14 00:17:29;;;;;;;1.80;1.20;;;18.10;52.30;;;;;;5114636;28;20074;-53
2021/12/14 00:19:57;;;;;;;1.35;1.10;;;18.10;52.30;;;;;;5114773;28;20030;-54
2021/12/14 00:24:06;;;;;;;1.65;1.20;;;18.10;52.30;;;;;;5114172;28;20083;-52
2021/12/14 00:25:27;;;;;;;1.30;1.20;;;18.00;52.30;;;;;;5088835;28;20030;-53
2021/12/14 00:27:54;;;;;;;1.58;1.15;;;18.10;52.40;;;;;;5114852;28;20066;-54
2021/12/14 00:30:20;;;;;;;1.35;1.20;;;18.10;52.30;;;;;;5113795;28;20045;-53
2021/12/14 00:32:46;;;;;;;1.30;1.15;;;18.00;52.40;;;;;;5095207;28;20020;-54
2021/12/14 00:35:13;;;;;;;2.45;1.10;;;18.10;52.40;;;;;;5113398;28;20473;-54
2021/12/14 00:37:42;;;;;;;1.67;1.25;;;18.00;52.40;;;;;;5114284;28;20020;-56
2021/12/14 00:40:12;;;;;;;1.20;0.82;;;18.00;52.40;;;;;;5113928;28;20024;-53
2021/12/14 00:42:38;;;;;;;2.05;1.30;;;18.00;52.30;;;;;;5114070;28;20012;-52
2021/12/14 00:45:04;;;;;;;1.30;1.17;;;18.10;52.40;;;;;;5095463;28;20027;-54
2021/12/14 00:47:30;;;;;;;1.25;1.05;;;18.10;52.40;;;;;;5114348;28;20378;-54
2021/12/14 00:49:56;;;;;;;1.30;1.10;;;18.10;52.40;;;;;;5113893;28;20109;-58
2021/12/14 00:52:22;;;;;;;1.42;1.25;;;18.00;52.40;;;;;;5113706;28;20016;-55
2021/12/14 00:54:48;;;;;;;2.00;1.10;;;18.00;52.50;;;;;;5114012;28;20023;-52
2021/12/14 00:57:14;;;;;;;1.55;0.90;;;18.00;52.40;;;;;;5096769;28;20500;-52
2021/12/14 00:59:41;;;;;;;2.80;1.30;;;18.00;52.50;;;;;;5095749;28;20512;-53
2021/12/14 01:02:16;;;;;;;2.22;1.48;;;18.00;52.50;;;;;;5113189;28;20037;-54
2021/12/14 01:04:55;;;;;;;2.58;1.20;;;18.00;52.50;;;;;;5113326;28;20035;-54
2021/12/14 01:07:24;;;;;;;1.30;1.13;;;18.00;52.50;;;;;;5113414;28;20016;-56
2021/12/14 01:09:51;;;;;;;2.38;1.10;;;18.00;52.50;;;;;;5113344;28;20397;-54
2021/12/14 01:12:29;;;;;;;1.33;1.00;;;18.00;52.60;;;;;;5117268;28;20032;-54
2021/12/14 01:15:12;;;;;;;1.20;1.10;;;18.00;52.60;;;;;;5117525;28;20023;-54
2021/12/14 01:17:54;;;;;;;1.60;1.10;;;17.90;52.40;;;;;;5117383;28;20485;-52
2021/12/14 01:20:20;;;;;;;1.55;1.15;;;17.90;52.50;;;;;;5117244;28;20016;-55
2021/12/14 01:22:53;;;;;;;2.90;1.10;;;18.00;52.50;;;;;;5117310;28;20053;-54
2021/12/14 01:25:27;;;;;;;1.05;0.95;;;18.00;52.60;;;;;;5117757;28;20015;-59
2021/12/14 01:28:22;;;;;;;1.20;1.00;;;17.90;52.60;;;;;;5117556;28;20011;-56
2021/12/14 01:31:12;;;;;;;1.20;1.00;;;17.90;52.60;;;;;;5118057;28;20023;-59
2021/12/14 01:33:40;;;;;;;1.20;1.10;;;17.90;52.60;;;;;;5117685;28;20016;-59
2021/12/14 01:39:44;;;;;;;1.95;1.17;;;17.90;52.60;;;;;;5117848;28;20036;-59
2021/12/14 01:42:16;;;;;;;1.05;0.95;;;17.90;52.50;;;;;;5116912;28;20096;-58
2021/12/14 01:45:01;;;;;;;2.55;1.38;;;17.90;52.50;;;;;;5116826;28;20008;-56
2021/12/14 01:47:30;;;;;;;1.30;1.08;;;17.90;52.50;;;;;;5116989;28;20016;-57
2021/12/14 01:49:56;;;;;;;1.45;1.00;;;17.90;52.60;;;;;;5098211;28;20034;-58
2021/12/14 01:52:30;;;;;;;1.33;0.98;;;17.90;52.60;;;;;;5117209;28;20016;-58
2021/12/14 01:55:09;;;;;;;1.20;0.93;;;17.90;52.60;;;;;;5118064;28;20027;-58
2021/12/14 01:57:35;;;;;;;1.25;1.05;;;17.90;52.60;;;;;;5118538;28;20043;-60
2021/12/14 02:00:02;;;;;;;1.52;1.08;;;17.90;52.60;;;;;;5119007;28;20035;-58
2021/12/14 02:02:42;;;;;;;1.70;1.05;;;17.80;52.60;;;;;;5083599;28;20020;-58
2021/12/14 02:05:40;;;;;;;1.23;1.13;;;17.90;52.60;;;;;;5117458;28;20019;-58
2021/12/14 02:08:18;;;;;;;1.35;1.05;;;17.90;52.60;;;;;;5113950;28;20031;-58
2021/12/14 02:10:44;;;;;;;2.15;1.15;;;17.80;52.60;;;;;;5116971;28;20072;-58
2021/12/14 02:13:11;;;;;;;0.95;0.85;;;17.80;52.60;;;;;;5116912;28;20054;-58
2021/12/14 02:15:41;;;;;;;1.30;0.90;;;17.80;52.60;;;;;;5116538;28;20019;-58
2021/12/14 02:18:11;;;;;;;2.00;1.10;;;17.80;52.60;;;;;;5116315;28;20020;-58
2021/12/14 02:20:38;;;;;;;1.23;0.95;;;17.80;52.70;;;;;;5115250;28;20103;-58
2021/12/14 02:23:05;;;;;;;1.23;1.08;;;17.90;52.70;;;;;;5115565;28;20020;-57
2021/12/14 02:25:31;;;;;;;1.10;1.00;;;17.80;52.70;;;;;;5115644;28;20015;-58
2021/12/14 02:28:00;;;;;;;1.10;1.00;;;17.80;52.60;;;;;;5115279;28;20011;-58
2021/12/14 02:30:28;;;;;;;1.38;0.90;;;17.80;52.60;;;;;;5115547;28;20024;-57
2021/12/14 02:32:57;;;;;;;1.15;1.00;;;17.80;52.70;;;;;;5115228;28;20011;-58
2021/12/14 02:35:26;;;;;;;1.63;1.10;;;17.80;52.70;;;;;;5115452;28;20020;-57
2021/12/14 02:38:00;;;;;;;1.20;1.10;;;17.80;52.70;;;;;;5115348;28;20082;-58
2021/12/14 02:43:39;;;;;;;1.35;1.02;;;17.80;52.80;;;;;;5115285;28;20077;-58
2021/12/14 02:46:18;;;;;;;1.10;0.90;;;17.80;52.80;;;;;;5114775;28;20015;-56
2021/12/14 02:48:46;;;;;;;1.70;0.93;;;17.80;52.70;;;;;;5114757;28;20396;-58
2021/12/14 02:51:35;;;;;;;1.40;1.13;;;17.80;52.70;;;;;;5115110;28;20019;-57
2021/12/14 02:54:16;;;;;;;1.35;0.90;;;17.80;52.80;;;;;;5114827;28;20066;-57
2021/12/14 02:56:42;;;;;;;1.40;1.00;;;17.70;52.80;;;;;;5096546;28;20084;-57
2021/12/14 02:59:22;;;;;;;1.25;0.98;;;17.70;52.80;;;;;;5114791;28;20020;-58
2021/12/14 03:01:49;;;;;;;1.80;1.17;;;17.80;52.90;;;;;;5114683;28;20458;-59
2021/12/14 03:04:16;;;;;;;1.65;1.10;;;17.80;52.80;;;;;;5114628;28;20023;-56
2021/12/14 03:06:49;;;;;;;1.38;1.13;;;17.80;52.80;;;;;;5114949;28;20015;-58
2021/12/14 03:12:32;;;;;;;2.95;1.10;;;17.70;52.80;;;;;;5051742;28;20446;-60
2021/12/14 03:15:08;;;;;;;1.63;1.00;;;17.80;52.80;;;;;;5051891;28;20547;-58
2021/12/14 03:17:33;;;;;;;1.02;0.90;;;17.80;52.70;;;;;;5051870;28;20096;-58
2021/12/14 03:20:06;;;;;;;1.10;1.00;;;17.90;52.40;;;;;;5034780;28;20510;-58
2021/12/14 03:22:58;;;;;;;1.60;1.15;;;18.00;52.20;;;;;;5051730;28;20025;-58
2021/12/14 03:25:47;;;;;;;1.10;0.90;;;18.10;52.00;;;;;;5051456;28;20040;-57
2021/12/14 03:28:13;;;;;;;1.63;0.95;;;18.20;51.90;;;;;;5051879;28;20116;-58
2021/12/14 03:30:58;;;;;;;1.70;0.98;;;18.20;51.70;;;;;;5051402;28;20031;-58
2021/12/14 03:33:27;;;;;;;1.30;1.10;;;18.30;51.40;;;;;;5050456;28;20029;-57
2021/12/14 03:36:20;;;;;;;2.72;1.45;;;18.40;51.30;;;;;;5051170;28;20013;-58
2021/12/14 03:38:48;;;;;;;1.38;1.08;;;18.50;51.20;;;;;;5050940;28;20037;-55
2021/12/14 03:41:17;;;;;;;1.17;1.08;;;18.60;50.80;;;;;;5051216;28;20017;-58
2021/12/14 03:43:53;;;;;;;1.13;0.90;;;18.70;50.60;;;;;;5034512;28;20041;-58
2021/12/14 03:46:20;;;;;;;0.98;0.80;;;18.70;50.40;;;;;;5067034;28;20053;-58
2021/12/14 03:48:45;;;;;;;2.15;1.00;;;18.80;50.40;;;;;;5078722;28;20443;-57
2021/12/14 03:51:11;;;;;;;0.95;0.90;;;18.80;50.30;;;;;;5095426;28;20381;-58
2021/12/14 03:53:38;;;;;;;2.80;0.88;;;18.90;50.10;;;;;;5113635;28;20473;-57
2021/12/14 03:56:05;;;;;;;1.08;0.70;;;18.90;50.00;;;;;;5113680;28;20019;-58
2021/12/14 03:58:37;;;;;;;1.42;0.93;;;18.90;49.90;;;;;;5113429;28;20482;-58
2021/12/14 04:01:12;;;;;;;1.30;0.90;;;19.10;49.70;;;;;;5095316;28;20020;-58
2021/12/14 04:03:39;;;;;;;1.10;1.00;;;19.20;49.60;;;;;;5113754;28;20492;-58
2021/12/14 04:06:05;;;;;;;1.10;1.00;;;19.30;49.90;;;;;;5113778;28;20016;-58
2021/12/14 04:08:31;;;;;;;1.50;0.70;;;19.30;49.40;;;;;;5113499;28;20035;-58
2021/12/14 04:10:58;;;;;;;0.93;0.73;;;19.40;48.90;;;;;;5113429;28;20028;-58
2021/12/14 04:13:30;;;;;;;1.67;0.90;;;19.50;48.70;;;;;;5113729;28;20016;-58
2021/12/14 04:15:56;;;;;;;0.98;0.88;;;19.60;48.70;;;;;;5095183;28;20007;-58
2021/12/14 04:18:22;;;;;;;1.08;0.70;;;19.70;48.50;;;;;;5095298;28;20380;-58
2021/12/14 04:20:48;;;;;;;1.80;1.00;;;19.70;48.20;;;;;;5095120;28;20020;-58
2021/12/14 04:23:17;;;;;;;1.02;0.90;;;19.80;48.00;;;;;;5114012;28;20043;-58
2021/12/14 04:25:44;;;;;;;1.05;0.68;;;19.90;47.90;;;;;;5113774;28;20088;-58
2021/12/14 04:28:13;;;;;;;1.23;0.80;;;20.00;47.80;;;;;;5113740;28;20097;-58
2021/12/14 04:30:40;;;;;;;0.98;0.88;;;20.10;47.70;;;;;;5113564;28;20016;-58
2021/12/14 04:33:08;;;;;;;0.95;0.70;;;20.10;47.50;;;;;;5113775;28;20027;-58
2021/12/14 04:35:35;;;;;;;0.90;0.65;;;20.20;47.40;;;;;;5113275;28;20018;-58
2021/12/14 04:38:08;;;;;;;1.33;0.98;;;20.20;47.20;;;;;;5113501;28;20095;-58
2021/12/14 04:51:54;;;;;;;1.02;0.93;;;20.30;47.10;;;;;;5113065;28;20024;-59
2021/12/14 04:51:58;;;;;;;1.38;0.82;;;20.70;46.50;;;;;;5117458;28;20077;-55
2021/12/14 04:54:25;;;;;;;0.93;0.85;;;20.70;46.30;;;;;;5117500;28;20047;-52
2021/12/14 04:56:52;;;;;;;1.75;0.90;;;20.80;46.30;;;;;;5117124;28;20470;-56
2021/12/14 04:59:29;;;;;;;1.98;0.82;;;20.80;46.10;;;;;;5117142;28;20076;-54
2021/12/14 05:01:59;;;;;;;1.40;0.80;;;20.90;46.00;;;;;;5117159;28;20018;-55
2021/12/14 05:04:25;;;;;;;0.77;0.70;;;20.90;45.90;;;;;;5117008;28;20069;-56
2021/12/14 05:07:02;;;;;;;1.00;0.88;;;21.00;45.80;;;;;;5117546;28;20091;-54
2021/12/14 05:09:34;;;;;;;1.05;0.70;;;21.10;45.70;;;;;;5117075;28;20043;-56
2021/12/14 05:12:14;;;;;;;1.65;0.80;;;21.10;45.60;;;;;;5116871;28;20020;-56
2021/12/14 05:14:41;;;;;;;0.88;0.80;;;21.10;45.60;;;;;;5117099;28;20016;-56
2021/12/14 05:17:16;;;;;;;1.15;0.82;;;21.20;45.50;;;;;;5117167;28;20094;-57
2021/12/14 05:19:42;;;;;;;0.60;0.60;;;21.30;45.50;;;;;;5116624;28;20028;-56
2021/12/14 05:22:19;;;;;;;0.90;0.70;;;21.30;45.30;;;;;;5117103;28;20012;-56
2021/12/14 05:24:48;;;;;;;0.73;0.70;;;21.30;45.30;;;;;;5116826;28;20039;-54
2021/12/14 05:27:17;;;;;;;1.30;0.88;;;21.40;45.20;;;;;;5116725;28;20004;-56
2021/12/14 05:29:43;;;;;;;1.55;0.90;;;21.40;45.20;;;;;;5116759;28;20016;-56
2021/12/14 05:32:11;;;;;;;0.80;0.75;;;21.50;45.20;;;;;;5116650;28;20027;-56
2021/12/14 05:34:37;;;;;;;0.63;0.60;;;21.40;45.10;;;;;;5116605;28;20062;-56
2021/12/14 05:37:04;;;;;;;0.98;0.88;;;21.50;45.10;;;;;;5116117;28;20050;-56
2021/12/14 05:44:32;;;;;;;1.33;0.90;;;21.60;44.90;;;;;;5116356;28;20030;-56
2021/12/14 05:47:00;;;;;;;0.70;0.70;;;21.70;44.90;;;;;;5116753;28;20037;-56
2021/12/14 05:49:29;;;;;;;1.17;0.85;;;21.70;44.90;;;;;;5098047;28;20480;-57
2021/12/14 05:51:56;;;;;;;1.10;0.80;;;21.70;44.90;;;;;;5116175;28;20480;-56
2021/12/14 05:54:24;;;;;;;0.70;0.60;;;21.70;44.80;;;;;;5116105;28;20018;-55
2021/12/14 05:56:50;;;;;;;1.25;0.80;;;21.70;44.80;;;;;;5115321;28;20019;-55
2021/12/14 05:59:21;;;;;;;1.10;0.90;;;21.80;44.80;;;;;;5097991;28;20016;-56
2021/12/14 06:01:46;;;;;;;2.72;0.90;;;21.80;44.80;;;;;;5098094;28;20022;-56
2021/12/14 06:04:13;;;;;;;0.70;0.68;;;21.80;44.70;;;;;;5098082;28;20094;-57
2021/12/14 06:06:47;;;;;;;0.95;0.70;;;21.80;44.70;;;;;;5116003;28;20484;-57
2021/12/14 06:09:17;;;;;;;0.85;0.80;;;21.90;44.70;;;;;;5116138;28;20071;-57
2021/12/14 06:11:44;;;;;;;0.80;0.70;;;21.90;44.70;;;;;;5116103;28;20494;-57
2021/12/14 06:14:19;;;;;;;0.88;0.80;;;21.90;44.60;;;;;;5115873;28;20458;-56
2021/12/14 06:16:46;;;;;;;0.95;0.70;;;22.00;44.60;;;;;;5116080;28;20024;-57
2021/12/14 06:19:22;;;;;;;1.13;0.80;;;22.00;44.60;;;;;;5115683;28;20028;-54
2021/12/14 06:21:51;;;;;;;1.02;0.90;;;22.00;44.60;;;;;;5116075;28;20016;-54
2021/12/14 06:24:20;;;;;;;1.00;0.75;;;22.00;44.60;;;;;;5115985;28;20022;-55
2021/12/14 06:26:48;;;;;;;1.00;0.90;;;22.00;44.50;;;;;;5098245;28;20012;-55
2021/12/14 06:29:22;;;;;;;0.82;0.57;;;22.00;44.50;;;;;;5097346;28;20020;-54
2021/12/14 06:31:48;;;;;;;1.30;0.77;;;22.10;44.50;;;;;;5115982;28;20031;-57
2021/12/14 06:34:28;;;;;;;0.80;0.70;;;22.10;44.50;;;;;;5097480;28;20069;-55
2021/12/14 06:40:09;;;;;;;1.20;0.85;;;22.10;44.40;;;;;;5115394;28;20421;-57
2021/12/14 06:42:40;;;;;;;1.00;0.77;;;22.10;44.50;;;;;;5115175;28;20032;-56
2021/12/14 06:45:07;;;;;;;0.75;0.70;;;22.20;44.50;;;;;;5115333;28;20098;-56
2021/12/14 06:47:33;;;;;;;0.93;0.82;;;22.20;44.50;;;;;;5115491;28;20098;-57
2021/12/14 06:50:11;;;;;;;0.88;0.80;;;22.20;44.50;;;;;;5115603;28;20065;-56
2021/12/14 06:52:37;;;;;;;0.70;0.70;;;22.20;44.40;;;;;;5115286;28;20086;-56
2021/12/14 06:55:04;;;;;;;1.08;0.68;;;22.20;44.40;;;;;;5097154;28;20040;-56
2021/12/14 06:57:30;;;;;;;1.23;0.88;;;22.20;44.40;;;;;;5114960;28;20031;-57
2021/12/14 06:59:57;;;;;;;0.80;0.80;;;22.30;44.40;;;;;;5097220;28;20038;-57
2021/12/14 07:02:23;;;;;;;2.08;0.60;;;22.30;44.30;;;;;;5114679;28;20091;-57
2021/12/14 07:04:51;;;;;;;1.00;0.82;;;22.30;44.40;;;;;;5114454;28;20031;-57
2021/12/14 07:07:20;;;;;;;1.08;0.80;;;22.30;44.40;;;;;;5113852;28;20069;-57
2021/12/14 07:10:08;;;;;;;0.75;0.73;;;22.30;44.40;;;;;;5113143;28;20051;-60
2021/12/14 07:12:36;;;;;;;0.70;0.70;;;22.30;44.30;;;;;;5113189;28;20020;-56
2021/12/14 07:15:23;;;;;;;1.13;0.73;;;22.40;44.30;;;;;;5113356;28;20069;-58
2021/12/14 07:17:59;;;;;;;1.00;0.90;;;22.40;44.40;;;;;;5113545;28;20055;-57
2021/12/14 07:20:37;;;;;;;0.80;0.80;;;22.40;44.40;;;;;;5111964;28;20023;-58
2021/12/14 07:23:28;;;;;;;1.05;0.88;;;22.40;44.40;;;;;;5112338;28;20019;-61
2021/12/14 07:26:05;;;;;;;1.65;0.75;;;22.40;44.30;;;;;;5078095;28;20069;-56
2021/12/14 07:28:43;;;;;;;0.98;0.80;;;22.50;44.30;;;;;;5113108;28;20509;-58
2021/12/14 07:31:20;;;;;;;0.60;0.60;;;22.50;44.30;;;;;;5113742;28;20008;-57
2021/12/14 07:33:49;;;;;;;0.63;0.57;;;22.40;44.30;;;;;;5113160;28;20110;-56
2021/12/14 07:36:21;;;;;;;0.60;0.60;;;22.50;44.30;;;;;;5113366;28;20064;-55
2021/12/14 07:39:08;;;;;;;0.90;0.73;;;22.50;44.30;;;;;;5113343;28;20012;-56
2021/12/14 07:41:42;;;;;;;0.80;0.70;;;22.50;44.30;;;;;;5094858;28;20155;-57
2021/12/14 07:44:14;;;;;;;2.78;0.70;;;22.50;44.30;;;;;;5113342;28;20080;-56
2021/12/14 07:47:18;;;;;;;0.60;0.60;;;22.50;44.30;;;;;;5113655;28;20020;-57
2021/12/14 07:49:54;;;;;;;1.52;0.90;;;22.60;44.30;;;;;;5101408;28;20084;-56
2021/12/14 07:52:22;;;;;;;0.93;0.70;;;22.60;44.30;;;;;;5113207;28;20019;-55
2021/12/14 07:54:52;;;;;;;0.93;0.82;;;22.60;44.30;;;;;;5113431;28;20012;-56
2021/12/14 07:57:24;;;;;;;1.15;0.82;;;22.60;44.30;;;;;;5112872;28;20014;-57
2021/12/14 07:59:52;;;;;;;0.70;0.70;;;22.60;44.20;;;;;;5094546;28;20060;-56
2021/12/14 08:02:31;;;;;;;0.68;0.68;;;22.60;44.20;;;;;;5113005;28;20011;-59
2021/12/14 08:05:24;;;;;;;0.80;0.80;;;22.70;44.20;;;;;;5113363;28;20023;-55
2021/12/14 08:08:19;;;;;;;0.95;0.80;;;22.70;44.20;;;;;;5113244;28;20034;-57
2021/12/14 08:10:49;;;;;;;0.70;0.70;;;22.70;44.20;;;;;;5113065;28;20063;-57
2021/12/14 08:13:22;;;;;;;0.75;0.73;;;22.70;44.10;;;;;;5113057;28;20076;-57
2021/12/14 08:15:53;;;;;;;1.00;0.90;;;22.70;44.10;;;;;;5112860;28;20031;-56
2021/12/14 08:18:30;;;;;;;0.88;0.77;;;22.70;44.20;;;;;;5113034;28;20643;-56
2021/12/14 08:21:02;;;;;;;0.98;0.80;;;22.70;44.10;;;;;;5113190;28;20477;-54
2021/12/14 08:23:30;;;;;;;1.75;0.70;;;22.70;44.20;;;;;;5113212;28;20019;-58
2021/12/14 08:26:00;;;;;;;0.68;0.68;;;22.80;44.20;;;;;;5113184;28;20026;-56
2021/12/14 08:28:26;;;;;;;0.77;0.77;;;22.80;44.10;;;;;;5112871;28;20047;-54
2021/12/14 08:31:04;;;;;;;1.40;0.80;;;22.80;44.10;;;;;;5113106;28;20022;-56
2021/12/14 08:33:30;;;;;;;0.70;0.70;;;22.90;44.10;;;;;;5094464;28;20015;-55
2021/12/14 08:35:57;;;;;;;1.10;0.80;;;22.90;44.00;;;;;;5113241;28;20044;-56
2021/12/14 08:38:23;;;;;;;1.13;0.90;;;22.90;44.00;;;;;;5113185;28;20011;-56
2021/12/14 08:40:56;;;;;;;0.60;0.60;;;22.90;44.00;;;;;;5112955;28;20027;-55
2021/12/14 08:43:31;;;;;;;1.92;0.85;;;22.90;44.00;;;;;;5095020;28;20094;-55
2021/12/14 08:46:02;;;;;;;1.10;0.80;;;22.90;44.00;;;;;;5112833;28;20011;-55
2021/12/14 08:48:29;;;;;;;0.70;0.70;;;22.90;44.00;;;;;;5112360;28;20020;-57
2021/12/14 08:51:17;;;;;;;0.90;0.70;;;22.90;44.00;;;;;;5112529;28;20027;-54
2021/12/14 08:53:48;;;;;;;0.93;0.90;;;22.90;44.00;;;;;;5094593;28;20068;-55
2021/12/14 08:56:16;;;;;;;1.42;1.10;;;23.00;44.00;;;;;;5094010;28;20016;-56
2021/12/14 08:58:42;;;;;;;0.70;0.70;;;23.00;43.90;;;;;;5112439;28;20023;-54
2021/12/14 09:01:13;;;;;;;1.13;0.90;;;23.00;43.90;;;;;;5093942;28;20024;-55
2021/12/14 09:03:43;;;;;;;;;;;23.00;43.90;;;;;;5095278;28;20038;-58
2021/12/14 09:06:12;;;;;;;1.23;1.10;;;23.00;43.90;;;;;;5112318;28;19968;-57
2021/12/14 09:08:38;;;;;;;1.23;0.93;;;22.90;44.00;;;;;;5112311;28;20035;-56
2021/12/14 09:11:04;;;;;;;1.60;1.17;;;22.90;44.10;;;;;;5112427;28;20024;-56
2021/12/14 09:13:30;;;;;;;1.15;0.80;;;22.90;44.20;;;;;;5112087;28;20077;-55
2021/12/14 09:16:17;;;;;;;1.20;1.10;;;22.90;44.20;;;;;;5112251;28;20022;-56
2021/12/14 09:18:46;;;;;;;1.88;0.85;;;22.80;44.30;;;;;;5111648;28;20008;-56
2021/12/14 09:21:18;;;;;;;0.77;0.63;;;22.70;44.50;;;;;;5093623;28;20015;-57
2021/12/14 09:23:48;;;;;;;0.75;0.70;;;22.70;44.70;;;;;;5112466;28;20106;-57
2021/12/14 09:26:18;;;;;;;0.80;0.70;;;22.60;44.80;;;;;;5111951;28;20012;-56
2021/12/14 09:28:44;;;;;;;1.00;0.90;;;22.50;45.00;;;;;;5112093;28;20039;-57
2021/12/14 09:31:13;;;;;;;0.80;0.80;;;22.50;45.00;;;;;;5095061;28;20117;-57
2021/12/14 09:33:40;;;;;;;0.95;0.88;;;22.50;45.20;;;;;;5097844;28;20047;-57
2021/12/14 09:36:12;;;;;;;2.17;0.90;;;22.40;45.30;;;;;;5115939;28;20114;-57
2021/12/14 09:38:42;;;;;;;1.30;1.00;;;22.40;45.40;;;;;;5115759;28;20015;-58
2021/12/14 09:41:09;;;;;;;0.80;0.80;;;22.40;45.50;;;;;;5098070;28;20104;-58
2021/12/14 09:43:35;;;;;;;1.35;0.90;;;22.30;45.50;;;;;;5115551;28;20004;-43
2021/12/14 09:46:03;;;;;;;1.17;1.08;;;22.40;45.50;;;;;;5115146;28;20012;-43
2021/12/14 09:48:34;;;;;;;1.40;1.02;;;22.30;45.50;;;;;;5115869;28;20043;-42
2021/12/14 09:51:07;;;;;;;1.50;0.85;;;22.30;45.60;;;;;;5115604;28;20091;-43
2021/12/14 09:53:33;;;;;;;1.33;0.82;;;22.30;45.60;;;;;;5115452;28;20099;-43
2021/12/14 09:55:59;;;;;;;1.75;0.90;;;22.30;45.60;;;;;;5097193;28;20008;-43
2021/12/14 09:58:35;;;;;;;1.15;0.90;;;22.30;45.60;;;;;;5115965;28;20024;-42
2021/12/14 10:01:06;;;;;;;1.50;0.90;;;22.30;45.70;;;;;;5097395;28;20031;-59
2021/12/14 10:03:32;;;;;;;1.13;0.90;;;22.30;45.70;;;;;;5116186;28;20087;-59
2021/12/14 10:06:00;;;;;;;2.30;1.08;;;22.30;45.70;;;;;;5116299;28;20435;-59
2021/12/14 10:08:32;;;;;;;2.15;0.90;;;22.30;45.70;;;;;;5096881;28;20073;-59
2021/12/14 10:11:07;;;;;;;1.17;0.98;;;22.30;45.80;;;;;;5115469;28;20020;-59
2021/12/14 10:13:35;;;;;;;1.27;1.00;;;22.20;45.80;;;;;;5115641;28;20020;-59
2021/12/14 10:16:01;;;;;;;1.17;0.98;;;22.20;45.80;;;;;;5115497;28;20091;-59
2021/12/14 10:18:40;;;;;;;4.28;1.08;;;22.30;45.80;;;;;;5115347;28;20070;-60
2021/12/14 10:21:09;;;;;;;1.20;1.00;;;22.30;45.90;;;;;;5115005;28;20024;-59
2021/12/14 10:23:35;;;;;;;1.70;1.00;;;22.30;45.80;;;;;;5115117;28;20012;-59
2021/12/14 10:26:01;;;;;;;1.02;0.90;;;22.20;45.80;;;;;;5096714;28;20012;-59
2021/12/14 10:28:27;;;;;;;1.95;1.00;;;22.30;45.90;;;;;;5115298;28;20035;-59
2021/12/14 10:31:02;;;;;;;1.15;1.00;;;22.30;45.90;;;;;;5115263;28;20075;-58
2021/12/14 10:33:28;;;;;;;2.10;1.02;;;22.20;45.80;;;;;;5115153;28;20011;-59
2021/12/14 10:35:59;;;;;;;1.48;0.90;;;22.20;45.90;;;;;;5096906;28;20481;-59
2021/12/14 10:43:42;;;;;;;1.75;1.10;;;22.20;46.00;;;;;;5115384;28;20031;-58
2021/12/14 10:46:14;;;;;;;1.20;0.90;;;22.30;45.90;;;;;;5097780;28;20016;-58
2021/12/14 10:48:42;;;;;;;1.77;1.02;;;22.20;45.90;;;;;;5115680;28;20421;-59
2021/12/14 10:51:09;;;;;;;1.25;0.90;;;22.20;45.90;;;;;;5115552;28;20008;-59
2021/12/14 10:53:35;;;;;;;1.20;1.00;;;22.20;45.90;;;;;;5097377;28;20018;-58
2021/12/14 10:56:09;;;;;;;1.55;0.80;;;22.20;45.90;;;;;;5097011;28;20069;-58
2021/12/14 10:58:35;;;;;;;2.03;0.85;;;22.20;45.90;;;;;;5114592;28;20023;-58
2021/12/14 11:01:06;;;;;;;1.83;0.90;;;22.30;46.00;;;;;;5114336;28;20073;-59
2021/12/14 11:03:36;;;;;;;1.45;1.10;;;22.30;46.00;;;;;;5114531;28;20036;-49
2021/12/14 11:06:04;;;;;;;1.57;1.10;;;22.20;46.00;;;;;;5114548;28;20011;-45
2021/12/14 11:11:04;;;;;;;1.02;0.90;;;22.30;45.90;;;;;;5114838;28;20031;-45
2021/12/14 11:13:52;;;;;;;1.20;1.00;;;22.30;46.00;;;;;;5114835;28;20076;-46
2021/12/14 11:19:14;;;;;;;2.00;0.98;;;22.30;45.90;;;;;;5114264;28;20038;-45
2021/12/14 11:21:40;;;;;;;1.00;0.82;;;22.30;46.00;;;;;;5114186;28;20016;-50
2021/12/14 11:24:08;;;;;;;0.90;0.90;;;22.20;46.00;;;;;;5096235;28;20008;-52
2021/12/14 11:26:36;;;;;;;1.20;0.90;;;22.30;46.00;;;;;;5114788;28;20072;-48
2021/12/14 11:29:09;;;;;;;1.48;1.02;;;22.30;46.00;;;;;;5096119;28;20076;-49
2021/12/14 11:31:42;;;;;;;1.40;1.10;;;22.30;46.00;;;;;;5114411;28;20026;-49
2021/12/14 11:34:11;;;;;;;1.30;0.82;;;22.30;46.00;;;;;;5114291;28;20022;-51
2021/12/14 11:36:41;;;;;;;1.10;0.90;;;22.30;45.90;;;;;;5114185;28;20024;-49
2021/12/14 11:39:10;;;;;;;1.20;1.00;;;22.30;45.90;;;;;;5114740;28;20024;-48
2021/12/14 11:41:38;;;;;;;1.27;1.00;;;22.30;45.90;;;;;;5114196;28;20034;-50
2021/12/14 11:44:08;;;;;;;1.55;0.90;;;22.30;46.00;;;;;;5113792;28;20095;-51
2021/12/14 11:46:44;;;;;;;;;;;22.30;45.90;;;;;;5114212;28;20028;-50
2021/12/14 11:49:11;;;;;;;1.55;1.10;;;22.30;45.90;;;;;;5114419;28;19924;-50
2021/12/14 11:51:36;;;;;;;0.85;0.85;;;22.30;45.90;;;;;;5114060;28;20015;-49
2021/12/14 11:54:02;;;;;;;1.40;1.10;;;22.30;45.90;;;;;;5061421;28;20008;-52
2021/12/14 11:56:30;;;;;;;1.52;1.10;;;22.40;45.90;;;;;;5114137;28;20027;-51
2021/12/14 11:59:00;;;;;;;1.30;1.00;;;22.40;45.90;;;;;;5114153;28;20038;-48
2021/12/14 12:01:48;;;;;;;1.05;0.95;;;22.30;45.90;;;;;;5113987;28;20011;-50
2021/12/14 12:04:20;;;;;;;0.98;0.80;;;22.30;45.90;;;;;;5113882;28;20011;-51
2021/12/14 12:09:40;;;;;;;1.23;0.90;;;22.40;46.00;;;;;;5113426;28;20054;-51
2021/12/14 12:12:09;;;;;;;0.88;0.88;;;22.30;45.90;;;;;;5113682;28;20004;-49
2021/12/14 12:14:40;;;;;;;1.63;1.10;;;22.40;46.00;;;;;;5114081;28;20035;-48
2021/12/14 12:18:00;;;;;;;1.25;1.00;;;22.40;46.00;;;;;;5113917;28;20027;-48
2021/12/14 12:20:28;;;;;;;1.48;0.93;;;22.40;46.00;;;;;;5011133;28;20034;-48
2021/12/14 12:22:57;;;;;;;1.20;0.90;;;22.40;46.00;;;;;;5011083;28;20508;-52
2021/12/14 12:25:24;;;;;;;1.65;1.00;;;22.30;45.90;;;;;;5010935;28;20022;-51
2021/12/14 12:27:52;;;;;;;1.30;1.00;;;22.30;46.00;;;;;;5011299;28;20106;-49
2021/12/14 12:30:50;;;;;;;1.30;1.00;;;22.40;46.00;;;;;;5011762;28;20544;-49
2021/12/14 12:33:28;;;;;;;1.10;0.90;;;22.30;46.00;;;;;;4952968;28;20069;-50
2021/12/14 12:35:58;;;;;;;1.00;0.90;;;22.30;46.00;;;;;;4953021;29;20064;-53
2021/12/14 12:38:27;;;;;;;1.02;0.82;;;22.40;46.00;;;;;;4953260;29;20034;-50
2021/12/14 12:41:09;;;;;;;1.00;0.90;;;22.30;46.00;;;;;;4952808;29;20110;-49
2021/12/14 12:43:38;;;;;;;0.82;0.80;;;22.30;46.00;;;;;;4952616;29;20110;-48
2021/12/14 12:46:13;;;;;;;2.72;1.13;;;22.40;46.10;;;;;;4953379;29;20019;-48
2021/12/14 12:48:44;;;;;;;1.30;1.15;;;22.40;46.10;;;;;;4953136;29;20129;-50
2021/12/14 12:51:10;;;;;;;1.85;1.10;;;22.40;46.10;;;;;;4952938;29;20110;-49
2021/12/14 12:53:36;;;;;;;1.25;1.10;;;22.40;46.10;;;;;;4971819;28;20093;-47
2021/12/14 12:56:11;;;;;;;1.00;0.90;;;22.40;46.00;;;;;;5052009;28;20156;-48
2021/12/14 12:58:40;;;;;;;1.63;0.93;;;22.40;46.10;;;;;;5050868;28;20038;-49
2021/12/14 13:01:05;;;;;;;1.25;1.10;;;22.40;46.10;;;;;;5050984;28;20124;-49
2021/12/14 13:03:36;;;;;;;1.65;1.15;;;22.40;46.10;;;;;;5051285;28;20025;-49
2021/12/14 13:06:10;;;;;;;1.63;0.93;;;22.40;46.10;;;;;;5053931;28;20020;-49
2021/12/14 13:08:40;;;;;;;1.35;1.02;;;22.40;46.00;;;;;;5080103;28;20285;-48
2021/12/14 13:11:16;;;;;;;1.50;1.02;;;22.40;46.10;;;;;;5118389;28;20027;-49
2021/12/14 13:13:54;;;;;;;1.98;1.02;;;22.40;46.10;;;;;;5118120;28;20012;-49
2021/12/14 13:16:24;;;;;;;3.63;0.90;;;22.40;46.10;;;;;;5117407;28;20007;-52
2021/12/14 13:18:51;;;;;;;1.33;1.00;;;22.40;46.10;;;;;;5117123;28;20015;-51
2021/12/14 13:21:20;;;;;;;0.98;0.90;;;22.40;46.00;;;;;;5117785;28;20049;-49
2021/12/14 13:24:03;;;;;;;1.33;1.20;;;22.40;46.10;;;;;;5117566;28;20036;-51
2021/12/14 13:26:56;;;;;;;0.90;0.90;;;22.40;46.00;;;;;;5117672;28;20020;-50
2021/12/14 13:29:53;;;;;;;1.10;1.00;;;22.40;45.90;;;;;;5104752;28;20038;-52
2021/12/14 13:32:26;;;;;;;2.90;1.05;;;22.40;46.00;;;;;;5116826;28;20024;-51
2021/12/14 13:34:58;;;;;;;1.10;1.00;;;22.40;46.00;;;;;;5117356;28;20020;-51
2021/12/14 13:37:48;;;;;;;2.65;1.27;;;22.40;46.00;;;;;;5117127;28;20092;-52
2021/12/14 13:40:14;;;;;;;3.03;1.13;;;22.40;46.10;;;;;;5116553;28;20015;-51
2021/12/14 13:43:07;;;;;;;1.38;1.17;;;22.40;46.10;;;;;;5116649;28;20023;-52
2021/12/14 13:45:36;;;;;;;1.10;0.90;;;22.40;46.10;;;;;;5117864;28;20015;-52
2021/12/14 13:48:03;;;;;;;1.10;1.00;;;22.40;46.10;;;;;;5117136;28;20012;-52
2021/12/14 13:50:31;;;;;;;1.20;1.10;;;22.40;46.10;;;;;;5117674;28;20015;-53
2021/12/14 13:52:57;;;;;;;0.98;0.80;;;22.40;46.10;;;;;;5099987;28;20028;-48
2021/12/14 13:55:24;;;;;;;2.58;1.10;;;22.40;46.00;;;;;;5116941;28;20030;-50
2021/12/14 13:57:55;;;;;;;1.33;0.90;;;22.40;46.10;;;;;;5116583;28;20020;-52